sensor_id;sensor_type;location;lat;lon;timestamp;P1;durP1;ratioP1;P2;durP2;ratioP2
71038;SDS011;58692;43.212;27.908;2023-12-20T00:00:58;65.97;;;33.70;;
71038;SDS011;58692;43.212;27.908;2023-12-20T00:03:24;59.47;;;32.93;;
71038;SDS011;58692;43.212;27.908;2023-12-20T00:05:49;55.20;;;30.07;;
71038;SDS011;58692;43.212;27.908;2023-12-20T00:08:15;47.80;;;28.47;;
71038;SDS011;58692;43.212;27.908;2023-12-20T00:10:41;45.30;;;26.57;;
71038;SDS011;58692;43.212;27.908;2023-12-20T00:13:08;48.75;;;25.30;;
71038;SDS011;58692;43.212;27.908;2023-12-20T00:15:34;46.17;;;25.67;;
71038;SDS011;58692;43.212;27.908;2023-12-20T00:18:00;48.13;;;25.23;;
71038;SDS011;58692;43.212;27.908;2023-12-20T00:20:26;42.35;;;23.50;;
71038;SDS011;58692;43.212;27.908;2023-12-20T00:22:52;46.63;;;24.33;;
71038;SDS011;58692;43.212;27.908;2023-12-20T00:25:19;42.95;;;24.92;;
71038;SDS011;58692;43.212;27.908;2023-12-20T00:27:45;49.03;;;25.37;;
71038;SDS011;58692;43.212;27.908;2023-12-20T00:30:11;45.67;;;24.10;;
71038;SDS011;58692;43.212;27.908;2023-12-20T00:32:36;42.03;;;23.40;;
71038;SDS011;58692;43.212;27.908;2023-12-20T00:35:02;38.23;;;22.57;;
71038;SDS011;58692;43.212;27.908;2023-12-20T00:37:28;41.60;;;24.15;;
71038;SDS011;58692;43.212;27.908;2023-12-20T00:39:53;47.00;;;24.17;;
71038;SDS011;58692;43.212;27.908;2023-12-20T00:42:19;42.13;;;22.20;;
71038;SDS011;58692;43.212;27.908;2023-12-20T00:44:45;41.83;;;23.43;;
71038;SDS011;58692;43.212;27.908;2023-12-20T00:47:10;40.38;;;21.83;;
71038;SDS011;58692;43.212;27.908;2023-12-20T00:49:36;41.08;;;23.13;;
71038;SDS011;58692;43.212;27.908;2023-12-20T00:52:02;37.80;;;21.73;;
71038;SDS011;58692;43.212;27.908;2023-12-20T00:54:27;41.77;;;23.10;;
71038;SDS011;58692;43.212;27.908;2023-12-20T00:56:53;44.10;;;23.70;;
71038;SDS011;58692;43.212;27.908;2023-12-20T00:59:19;40.40;;;23.42;;
71038;SDS011;58692;43.212;27.908;2023-12-20T01:01:44;42.03;;;22.27;;
71038;SDS011;58692;43.212;27.908;2023-12-20T01:04:10;37.50;;;23.05;;
71038;SDS011;58692;43.212;27.908;2023-12-20T01:06:36;41.43;;;24.07;;
71038;SDS011;58692;43.212;27.908;2023-12-20T01:09:01;38.90;;;21.97;;
71038;SDS011;58692;43.212;27.908;2023-12-20T01:11:27;42.85;;;22.92;;
71038;SDS011;58692;43.212;27.908;2023-12-20T01:13:53;46.72;;;25.05;;
71038;SDS011;58692;43.212;27.908;2023-12-20T01:16:19;40.47;;;21.53;;
71038;SDS011;58692;43.212;27.908;2023-12-20T01:18:44;40.00;;;21.40;;
71038;SDS011;58692;43.212;27.908;2023-12-20T01:21:10;37.37;;;21.80;;
71038;SDS011;58692;43.212;27.908;2023-12-20T01:23:36;36.47;;;20.17;;
71038;SDS011;58692;43.212;27.908;2023-12-20T01:26:01;33.67;;;20.70;;
71038;SDS011;58692;43.212;27.908;2023-12-20T01:28:28;37.88;;;20.50;;
71038;SDS011;58692;43.212;27.908;2023-12-20T01:30:53;38.87;;;20.10;;
71038;SDS011;58692;43.212;27.908;2023-12-20T01:33:19;33.37;;;20.13;;
71038;SDS011;58692;43.212;27.908;2023-12-20T01:35:45;32.43;;;18.40;;
71038;SDS011;58692;43.212;27.908;2023-12-20T01:38:10;34.53;;;19.38;;
71038;SDS011;58692;43.212;27.908;2023-12-20T01:40:36;35.53;;;18.63;;
71038;SDS011;58692;43.212;27.908;2023-12-20T01:43:02;36.60;;;19.60;;
71038;SDS011;58692;43.212;27.908;2023-12-20T01:45:32;38.80;;;18.77;;
71038;SDS011;58692;43.212;27.908;2023-12-20T01:47:58;36.05;;;19.27;;
71038;SDS011;58692;43.212;27.908;2023-12-20T01:50:27;33.83;;;18.85;;
71038;SDS011;58692;43.212;27.908;2023-12-20T01:52:54;36.03;;;18.73;;
71038;SDS011;58692;43.212;27.908;2023-12-20T01:55:23;37.35;;;19.73;;
71038;SDS011;58692;43.212;27.908;2023-12-20T01:57:50;41.58;;;23.70;;
71038;SDS011;58692;43.212;27.908;2023-12-20T02:00:16;45.83;;;27.67;;
71038;SDS011;58692;43.212;27.908;2023-12-20T02:02:43;56.90;;;35.08;;
71038;SDS011;58692;43.212;27.908;2023-12-20T02:05:10;65.23;;;36.87;;
71038;SDS011;58692;43.212;27.908;2023-12-20T02:07:37;64.05;;;37.30;;
71038;SDS011;58692;43.212;27.908;2023-12-20T02:10:03;64.63;;;37.72;;
71038;SDS011;58692;43.212;27.908;2023-12-20T02:12:29;59.03;;;33.92;;
71038;SDS011;58692;43.212;27.908;2023-12-20T02:14:55;50.30;;;29.92;;
71038;SDS011;58692;43.212;27.908;2023-12-20T02:17:21;46.47;;;27.40;;
71038;SDS011;58692;43.212;27.908;2023-12-20T02:19:47;46.97;;;26.73;;
71038;SDS011;58692;43.212;27.908;2023-12-20T02:22:13;47.17;;;28.30;;
71038;SDS011;58692;43.212;27.908;2023-12-20T02:24:39;47.70;;;28.83;;
71038;SDS011;58692;43.212;27.908;2023-12-20T02:27:05;52.15;;;28.58;;
71038;SDS011;58692;43.212;27.908;2023-12-20T02:29:32;49.07;;;26.43;;
71038;SDS011;58692;43.212;27.908;2023-12-20T02:31:59;50.50;;;28.88;;
71038;SDS011;58692;43.212;27.908;2023-12-20T02:34:25;48.28;;;28.33;;
71038;SDS011;58692;43.212;27.908;2023-12-20T02:36:51;48.43;;;26.57;;
71038;SDS011;58692;43.212;27.908;2023-12-20T02:39:16;51.17;;;27.50;;
71038;SDS011;58692;43.212;27.908;2023-12-20T02:41:43;51.05;;;27.13;;
71038;SDS011;58692;43.212;27.908;2023-12-20T02:44:08;43.50;;;25.70;;
71038;SDS011;58692;43.212;27.908;2023-12-20T02:46:34;44.63;;;26.00;;
71038;SDS011;58692;43.212;27.908;2023-12-20T02:49:00;46.13;;;24.70;;
71038;SDS011;58692;43.212;27.908;2023-12-20T02:51:25;41.13;;;22.83;;
71038;SDS011;58692;43.212;27.908;2023-12-20T02:53:51;40.50;;;21.92;;
71038;SDS011;58692;43.212;27.908;2023-12-20T02:56:16;43.23;;;23.53;;
71038;SDS011;58692;43.212;27.908;2023-12-20T02:58:42;38.00;;;20.95;;
71038;SDS011;58692;43.212;27.908;2023-12-20T03:01:08;40.43;;;22.10;;
71038;SDS011;58692;43.212;27.908;2023-12-20T03:03:33;35.25;;;20.73;;
71038;SDS011;58692;43.212;27.908;2023-12-20T03:05:59;37.83;;;20.97;;
71038;SDS011;58692;43.212;27.908;2023-12-20T03:08:25;37.65;;;21.95;;
71038;SDS011;58692;43.212;27.908;2023-12-20T03:10:50;34.50;;;19.60;;
71038;SDS011;58692;43.212;27.908;2023-12-20T03:13:16;37.92;;;19.90;;
71038;SDS011;58692;43.212;27.908;2023-12-20T03:15:44;33.20;;;19.23;;
71038;SDS011;58692;43.212;27.908;2023-12-20T03:18:10;36.35;;;20.20;;
71038;SDS011;58692;43.212;27.908;2023-12-20T03:20:36;36.20;;;19.83;;
71038;SDS011;58692;43.212;27.908;2023-12-20T03:23:02;37.23;;;20.47;;
71038;SDS011;58692;43.212;27.908;2023-12-20T03:25:28;38.28;;;21.25;;
71038;SDS011;58692;43.212;27.908;2023-12-20T03:27:54;43.15;;;24.90;;
71038;SDS011;58692;43.212;27.908;2023-12-20T03:30:20;42.20;;;25.27;;
71038;SDS011;58692;43.212;27.908;2023-12-20T03:32:46;54.58;;;32.30;;
71038;SDS011;58692;43.212;27.908;2023-12-20T03:35:12;61.20;;;37.08;;
71038;SDS011;58692;43.212;27.908;2023-12-20T03:37:38;92.83;;;51.07;;
71038;SDS011;58692;43.212;27.908;2023-12-20T03:40:04;94.68;;;54.92;;
71038;SDS011;58692;43.212;27.908;2023-12-20T03:42:30;68.05;;;38.85;;
71038;SDS011;58692;43.212;27.908;2023-12-20T03:44:56;98.87;;;57.07;;
71038;SDS011;58692;43.212;27.908;2023-12-20T03:47:21;106.75;;;61.10;;
71038;SDS011;58692;43.212;27.908;2023-12-20T03:49:47;120.35;;;72.13;;
71038;SDS011;58692;43.212;27.908;2023-12-20T03:52:13;141.23;;;80.23;;
71038;SDS011;58692;43.212;27.908;2023-12-20T03:54:39;134.45;;;74.60;;
71038;SDS011;58692;43.212;27.908;2023-12-20T03:57:07;117.80;;;68.93;;
71038;SDS011;58692;43.212;27.908;2023-12-20T03:59:34;112.78;;;66.22;;
71038;SDS011;58692;43.212;27.908;2023-12-20T04:02:01;107.85;;;61.35;;
71038;SDS011;58692;43.212;27.908;2023-12-20T04:04:27;101.27;;;59.33;;
71038;SDS011;58692;43.212;27.908;2023-12-20T04:06:52;104.47;;;58.22;;
71038;SDS011;58692;43.212;27.908;2023-12-20T04:09:18;95.73;;;53.33;;
71038;SDS011;58692;43.212;27.908;2023-12-20T04:11:44;97.13;;;54.23;;
71038;SDS011;58692;43.212;27.908;2023-12-20T04:14:09;89.43;;;49.80;;
71038;SDS011;58692;43.212;27.908;2023-12-20T04:16:35;75.50;;;44.53;;
71038;SDS011;58692;43.212;27.908;2023-12-20T04:19:01;74.30;;;41.43;;
71038;SDS011;58692;43.212;27.908;2023-12-20T04:21:27;70.30;;;38.92;;
71038;SDS011;58692;43.212;27.908;2023-12-20T04:23:53;90.47;;;48.55;;
71038;SDS011;58692;43.212;27.908;2023-12-20T04:26:18;105.10;;;56.80;;
71038;SDS011;58692;43.212;27.908;2023-12-20T04:28:44;113.17;;;60.87;;
71038;SDS011;58692;43.212;27.908;2023-12-20T04:31:09;107.13;;;58.33;;
71038;SDS011;58692;43.212;27.908;2023-12-20T04:33:35;94.77;;;48.00;;
71038;SDS011;58692;43.212;27.908;2023-12-20T04:36:01;81.03;;;41.63;;
71038;SDS011;58692;43.212;27.908;2023-12-20T04:38:26;64.13;;;35.17;;
71038;SDS011;58692;43.212;27.908;2023-12-20T04:40:52;58.67;;;30.20;;
71038;SDS011;58692;43.212;27.908;2023-12-20T04:43:17;66.03;;;31.70;;
71038;SDS011;58692;43.212;27.908;2023-12-20T04:45:43;64.93;;;31.53;;
71038;SDS011;58692;43.212;27.908;2023-12-20T04:48:09;61.90;;;32.03;;
71038;SDS011;58692;43.212;27.908;2023-12-20T04:50:34;64.97;;;31.70;;
71038;SDS011;58692;43.212;27.908;2023-12-20T04:53:00;59.65;;;31.75;;
71038;SDS011;58692;43.212;27.908;2023-12-20T04:55:26;60.33;;;30.27;;
71038;SDS011;58692;43.212;27.908;2023-12-20T04:57:51;65.88;;;32.88;;
71038;SDS011;58692;43.212;27.908;2023-12-20T05:00:17;63.37;;;32.97;;
71038;SDS011;58692;43.212;27.908;2023-12-20T05:02:43;58.80;;;31.55;;
71038;SDS011;58692;43.212;27.908;2023-12-20T05:05:08;63.93;;;32.07;;
71038;SDS011;58692;43.212;27.908;2023-12-20T05:07:34;63.35;;;32.28;;
71038;SDS011;58692;43.212;27.908;2023-12-20T05:10:00;61.00;;;31.93;;
71038;SDS011;58692;43.212;27.908;2023-12-20T05:12:26;59.25;;;30.20;;
71038;SDS011;58692;43.212;27.908;2023-12-20T05:14:51;66.17;;;33.80;;
71038;SDS011;58692;43.212;27.908;2023-12-20T05:17:17;60.50;;;34.03;;
71038;SDS011;58692;43.212;27.908;2023-12-20T05:19:45;68.88;;;36.20;;
71038;SDS011;58692;43.212;27.908;2023-12-20T05:22:11;71.97;;;36.13;;
71038;SDS011;58692;43.212;27.908;2023-12-20T05:24:37;70.60;;;37.00;;
71038;SDS011;58692;43.212;27.908;2023-12-20T05:27:03;72.00;;;38.53;;
71038;SDS011;58692;43.212;27.908;2023-12-20T05:29:31;81.20;;;41.13;;
71038;SDS011;58692;43.212;27.908;2023-12-20T05:31:57;71.28;;;39.03;;
71038;SDS011;58692;43.212;27.908;2023-12-20T05:34:24;71.22;;;37.55;;
71038;SDS011;58692;43.212;27.908;2023-12-20T05:36:49;69.47;;;37.83;;
71038;SDS011;58692;43.212;27.908;2023-12-20T05:39:15;75.18;;;38.25;;
71038;SDS011;58692;43.212;27.908;2023-12-20T05:41:40;73.17;;;38.50;;
71038;SDS011;58692;43.212;27.908;2023-12-20T05:44:06;69.05;;;38.42;;
71038;SDS011;58692;43.212;27.908;2023-12-20T05:46:32;70.03;;;37.83;;
71038;SDS011;58692;43.212;27.908;2023-12-20T05:48:58;77.60;;;39.67;;
71038;SDS011;58692;43.212;27.908;2023-12-20T05:51:23;71.47;;;39.00;;
71038;SDS011;58692;43.212;27.908;2023-12-20T05:53:49;75.07;;;39.00;;
71038;SDS011;58692;43.212;27.908;2023-12-20T05:56:15;73.37;;;39.83;;
71038;SDS011;58692;43.212;27.908;2023-12-20T05:58:40;83.38;;;40.97;;
71038;SDS011;58692;43.212;27.908;2023-12-20T06:01:06;76.57;;;40.50;;
71038;SDS011;58692;43.212;27.908;2023-12-20T06:03:33;74.75;;;40.60;;
71038;SDS011;58692;43.212;27.908;2023-12-20T06:06:03;75.95;;;40.65;;
71038;SDS011;58692;43.212;27.908;2023-12-20T06:08:31;77.28;;;40.70;;
71038;SDS011;58692;43.212;27.908;2023-12-20T06:10:57;79.77;;;40.57;;
71038;SDS011;58692;43.212;27.908;2023-12-20T06:13:23;85.73;;;43.43;;
71038;SDS011;58692;43.212;27.908;2023-12-20T06:15:49;79.77;;;41.97;;
71038;SDS011;58692;43.212;27.908;2023-12-20T06:18:15;86.90;;;43.30;;
71038;SDS011;58692;43.212;27.908;2023-12-20T06:20:40;78.73;;;41.50;;
71038;SDS011;58692;43.212;27.908;2023-12-20T06:23:06;83.22;;;40.83;;
71038;SDS011;58692;43.212;27.908;2023-12-20T06:25:32;82.63;;;43.87;;
71038;SDS011;58692;43.212;27.908;2023-12-20T06:27:58;88.28;;;46.22;;
71038;SDS011;58692;43.212;27.908;2023-12-20T06:30:24;93.88;;;48.55;;
71038;SDS011;58692;43.212;27.908;2023-12-20T06:32:50;96.75;;;50.13;;
71038;SDS011;58692;43.212;27.908;2023-12-20T06:35:16;101.40;;;50.80;;
71038;SDS011;58692;43.212;27.908;2023-12-20T06:37:42;113.38;;;55.97;;
71038;SDS011;58692;43.212;27.908;2023-12-20T06:40:09;145.00;;;75.23;;
71038;SDS011;58692;43.212;27.908;2023-12-20T06:42:35;186.55;;;102.60;;
71038;SDS011;58692;43.212;27.908;2023-12-20T06:45:01;196.70;;;114.47;;
71038;SDS011;58692;43.212;27.908;2023-12-20T06:47:27;183.32;;;106.78;;
71038;SDS011;58692;43.212;27.908;2023-12-20T06:49:53;173.93;;;101.27;;
71038;SDS011;58692;43.212;27.908;2023-12-20T06:52:18;161.70;;;92.68;;
71038;SDS011;58692;43.212;27.908;2023-12-20T06:54:44;157.30;;;84.77;;
71038;SDS011;58692;43.212;27.908;2023-12-20T06:57:10;134.50;;;80.00;;
71038;SDS011;58692;43.212;27.908;2023-12-20T06:59:40;137.63;;;76.47;;
71038;SDS011;58692;43.212;27.908;2023-12-20T07:02:06;128.35;;;73.07;;
71038;SDS011;58692;43.212;27.908;2023-12-20T07:04:39;124.05;;;73.65;;
71038;SDS011;58692;43.212;27.908;2023-12-20T07:07:06;123.20;;;66.80;;
71038;SDS011;58692;43.212;27.908;2023-12-20T07:09:32;123.37;;;64.77;;
71038;SDS011;58692;43.212;27.908;2023-12-20T07:11:58;121.30;;;63.88;;
71038;SDS011;58692;43.212;27.908;2023-12-20T07:14:24;119.38;;;64.28;;
71038;SDS011;58692;43.212;27.908;2023-12-20T07:16:50;109.68;;;63.47;;
71038;SDS011;58692;43.212;27.908;2023-12-20T07:19:16;117.10;;;64.70;;
71038;SDS011;58692;43.212;27.908;2023-12-20T07:21:42;116.87;;;69.63;;
71038;SDS011;58692;43.212;27.908;2023-12-20T07:24:07;130.38;;;71.90;;
71038;SDS011;58692;43.212;27.908;2023-12-20T07:26:33;130.77;;;76.13;;
71038;SDS011;58692;43.212;27.908;2023-12-20T07:29:00;124.60;;;73.30;;
71038;SDS011;58692;43.212;27.908;2023-12-20T07:31:28;132.25;;;76.20;;
71038;SDS011;58692;43.212;27.908;2023-12-20T07:33:53;135.73;;;77.10;;
71038;SDS011;58692;43.212;27.908;2023-12-20T07:36:19;140.68;;;77.43;;
71038;SDS011;58692;43.212;27.908;2023-12-20T07:38:46;145.17;;;79.17;;
71038;SDS011;58692;43.212;27.908;2023-12-20T07:41:15;149.32;;;81.50;;
71038;SDS011;58692;43.212;27.908;2023-12-20T07:43:43;141.48;;;80.80;;
71038;SDS011;58692;43.212;27.908;2023-12-20T07:46:12;145.32;;;79.32;;
71038;SDS011;58692;43.212;27.908;2023-12-20T07:48:37;117.30;;;70.10;;
71038;SDS011;58692;43.212;27.908;2023-12-20T07:51:04;134.63;;;72.78;;
71038;SDS011;58692;43.212;27.908;2023-12-20T07:53:32;121.57;;;62.88;;
71038;SDS011;58692;43.212;27.908;2023-12-20T07:55:58;110.25;;;58.85;;
71038;SDS011;58692;43.212;27.908;2023-12-20T07:58:27;100.53;;;53.83;;
71038;SDS011;58692;43.212;27.908;2023-12-20T08:00:56;114.27;;;59.10;;
71038;SDS011;58692;43.212;27.908;2023-12-20T08:03:22;107.80;;;56.75;;
71038;SDS011;58692;43.212;27.908;2023-12-20T08:05:48;108.88;;;61.15;;
71038;SDS011;58692;43.212;27.908;2023-12-20T08:08:14;121.53;;;63.40;;
71038;SDS011;58692;43.212;27.908;2023-12-20T08:10:39;72.32;;;38.67;;
71038;SDS011;58692;43.212;27.908;2023-12-20T08:13:05;64.60;;;32.87;;
71038;SDS011;58692;43.212;27.908;2023-12-20T08:15:40;54.33;;;30.17;;
71038;SDS011;58692;43.212;27.908;2023-12-20T08:18:05;40.28;;;18.35;;
71038;SDS011;58692;43.212;27.908;2023-12-20T08:20:34;18.02;;;10.50;;
71038;SDS011;58692;43.212;27.908;2023-12-20T08:22:59;27.63;;;14.13;;
71038;SDS011;58692;43.212;27.908;2023-12-20T08:25:32;21.42;;;11.40;;
71038;SDS011;58692;43.212;27.908;2023-12-20T08:27:57;14.20;;;7.73;;
71038;SDS011;58692;43.212;27.908;2023-12-20T08:30:23;15.50;;;7.95;;
71038;SDS011;58692;43.212;27.908;2023-12-20T08:32:50;18.33;;;9.80;;
71038;SDS011;58692;43.212;27.908;2023-12-20T08:35:18;15.57;;;7.77;;
71038;SDS011;58692;43.212;27.908;2023-12-20T08:37:45;15.40;;;7.60;;
71038;SDS011;58692;43.212;27.908;2023-12-20T08:40:16;15.75;;;9.27;;
71038;SDS011;58692;43.212;27.908;2023-12-20T08:42:45;23.40;;;11.27;;
71038;SDS011;58692;43.212;27.908;2023-12-20T08:45:11;20.93;;;11.80;;
71038;SDS011;58692;43.212;27.908;2023-12-20T08:47:37;19.77;;;10.95;;
71038;SDS011;58692;43.212;27.908;2023-12-20T08:50:09;17.52;;;9.20;;
71038;SDS011;58692;43.212;27.908;2023-12-20T08:52:35;16.07;;;9.37;;
71038;SDS011;58692;43.212;27.908;2023-12-20T08:55:04;17.67;;;8.65;;
71038;SDS011;58692;43.212;27.908;2023-12-20T08:57:39;17.90;;;11.00;;
71038;SDS011;58692;43.212;27.908;2023-12-20T09:00:10;15.63;;;9.55;;
71038;SDS011;58692;43.212;27.908;2023-12-20T09:02:37;18.13;;;9.67;;
71038;SDS011;58692;43.212;27.908;2023-12-20T09:05:05;15.93;;;9.27;;
71038;SDS011;58692;43.212;27.908;2023-12-20T09:07:31;16.90;;;8.43;;
71038;SDS011;58692;43.212;27.908;2023-12-20T09:09:57;15.63;;;8.43;;
71038;SDS011;58692;43.212;27.908;2023-12-20T09:12:23;15.88;;;8.30;;
71038;SDS011;58692;43.212;27.908;2023-12-20T09:14:51;15.60;;;7.87;;
71038;SDS011;58692;43.212;27.908;2023-12-20T09:17:17;16.10;;;8.88;;
71038;SDS011;58692;43.212;27.908;2023-12-20T09:19:48;18.73;;;8.13;;
71038;SDS011;58692;43.212;27.908;2023-12-20T09:22:37;17.10;;;8.02;;
71038;SDS011;58692;43.212;27.908;2023-12-20T09:25:07;14.52;;;7.50;;
71038;SDS011;58692;43.212;27.908;2023-12-20T09:27:35;14.53;;;7.53;;
71038;SDS011;58692;43.212;27.908;2023-12-20T09:30:01;13.80;;;7.53;;
71038;SDS011;58692;43.212;27.908;2023-12-20T09:32:31;14.82;;;7.20;;
71038;SDS011;58692;43.212;27.908;2023-12-20T09:34:57;11.85;;;6.65;;
71038;SDS011;58692;43.212;27.908;2023-12-20T09:37:24;13.63;;;7.03;;
71038;SDS011;58692;43.212;27.908;2023-12-20T09:39:51;13.48;;;7.45;;
71038;SDS011;58692;43.212;27.908;2023-12-20T09:42:28;16.05;;;7.68;;
71038;SDS011;58692;43.212;27.908;2023-12-20T09:45:06;13.60;;;7.38;;
71038;SDS011;58692;43.212;27.908;2023-12-20T09:47:35;14.57;;;7.75;;
71038;SDS011;58692;43.212;27.908;2023-12-20T09:50:02;14.93;;;7.20;;
71038;SDS011;58692;43.212;27.908;2023-12-20T09:52:28;12.88;;;7.15;;
71038;SDS011;58692;43.212;27.908;2023-12-20T09:54:55;12.63;;;6.85;;
71038;SDS011;58692;43.212;27.908;2023-12-20T09:57:22;12.68;;;7.10;;
71038;SDS011;58692;43.212;27.908;2023-12-20T09:59:48;14.47;;;7.67;;
71038;SDS011;58692;43.212;27.908;2023-12-20T10:02:13;14.23;;;6.68;;
71038;SDS011;58692;43.212;27.908;2023-12-20T10:04:42;11.73;;;7.00;;
71038;SDS011;58692;43.212;27.908;2023-12-20T10:07:15;12.85;;;6.70;;
71038;SDS011;58692;43.212;27.908;2023-12-20T10:09:41;11.97;;;6.07;;
71038;SDS011;58692;43.212;27.908;2023-12-20T10:12:07;12.15;;;6.20;;
71038;SDS011;58692;43.212;27.908;2023-12-20T10:14:33;11.38;;;5.55;;
71038;SDS011;58692;43.212;27.908;2023-12-20T10:17:03;11.00;;;5.68;;
71038;SDS011;58692;43.212;27.908;2023-12-20T10:19:32;11.63;;;5.90;;
71038;SDS011;58692;43.212;27.908;2023-12-20T10:21:59;10.23;;;5.43;;
71038;SDS011;58692;43.212;27.908;2023-12-20T10:24:24;10.20;;;5.38;;
71038;SDS011;58692;43.212;27.908;2023-12-20T10:29:34;10.60;;;5.68;;
71038;SDS011;58692;43.212;27.908;2023-12-20T10:34:47;10.48;;;5.88;;
71038;SDS011;58692;43.212;27.908;2023-12-20T10:37:13;12.25;;;6.30;;
71038;SDS011;58692;43.212;27.908;2023-12-20T10:39:38;11.40;;;6.13;;
71038;SDS011;58692;43.212;27.908;2023-12-20T10:42:11;11.10;;;6.10;;
71038;SDS011;58692;43.212;27.908;2023-12-20T10:44:40;11.82;;;6.60;;
71038;SDS011;58692;43.212;27.908;2023-12-20T10:47:06;13.17;;;6.60;;
71038;SDS011;58692;43.212;27.908;2023-12-20T10:49:43;11.65;;;5.97;;
71038;SDS011;58692;43.212;27.908;2023-12-20T10:52:11;11.52;;;6.38;;
71038;SDS011;58692;43.212;27.908;2023-12-20T10:54:40;20.80;;;7.43;;
71038;SDS011;58692;43.212;27.908;2023-12-20T10:57:06;11.68;;;6.45;;
71038;SDS011;58692;43.212;27.908;2023-12-20T10:59:37;10.80;;;6.00;;
71038;SDS011;58692;43.212;27.908;2023-12-20T11:02:04;10.70;;;5.75;;
71038;SDS011;58692;43.212;27.908;2023-12-20T11:04:34;9.45;;;4.50;;
71038;SDS011;58692;43.212;27.908;2023-12-20T11:07:22;10.73;;;4.80;;
71038;SDS011;58692;43.212;27.908;2023-12-20T11:09:56;12.32;;;5.05;;
71038;SDS011;58692;43.212;27.908;2023-12-20T11:14:59;10.30;;;5.22;;
71038;SDS011;58692;43.212;27.908;2023-12-20T11:17:29;13.00;;;5.50;;
71038;SDS011;58692;43.212;27.908;2023-12-20T11:22:32;13.75;;;6.07;;
71038;SDS011;58692;43.212;27.908;2023-12-20T11:25:03;8.87;;;4.93;;
71038;SDS011;58692;43.212;27.908;2023-12-20T11:27:33;11.68;;;5.78;;
71038;SDS011;58692;43.212;27.908;2023-12-20T11:30:03;10.65;;;6.05;;
71038;SDS011;58692;43.212;27.908;2023-12-20T11:32:35;11.02;;;6.25;;
71038;SDS011;58692;43.212;27.908;2023-12-20T11:35:17;11.65;;;6.38;;
71038;SDS011;58692;43.212;27.908;2023-12-20T11:37:45;11.50;;;7.17;;
71038;SDS011;58692;43.212;27.908;2023-12-20T11:40:23;13.05;;;7.53;;
71038;SDS011;58692;43.212;27.908;2023-12-20T11:42:50;15.43;;;8.88;;
71038;SDS011;58692;43.212;27.908;2023-12-20T11:45:18;14.65;;;7.88;;
71038;SDS011;58692;43.212;27.908;2023-12-20T11:47:51;14.02;;;8.02;;
71038;SDS011;58692;43.212;27.908;2023-12-20T11:50:19;14.03;;;8.03;;
71038;SDS011;58692;43.212;27.908;2023-12-20T11:52:47;14.18;;;7.70;;
71038;SDS011;58692;43.212;27.908;2023-12-20T11:55:13;15.32;;;8.50;;
71038;SDS011;58692;43.212;27.908;2023-12-20T11:57:39;13.63;;;8.20;;
71038;SDS011;58692;43.212;27.908;2023-12-20T12:00:06;15.80;;;8.77;;
71038;SDS011;58692;43.212;27.908;2023-12-20T12:02:32;16.10;;;9.13;;
71038;SDS011;58692;43.212;27.908;2023-12-20T12:04:59;14.43;;;8.75;;
71038;SDS011;58692;43.212;27.908;2023-12-20T12:07:25;19.23;;;8.65;;
71038;SDS011;58692;43.212;27.908;2023-12-20T12:09:51;13.37;;;7.67;;
71038;SDS011;58692;43.212;27.908;2023-12-20T12:12:17;15.98;;;8.18;;
71038;SDS011;58692;43.212;27.908;2023-12-20T12:14:44;15.90;;;8.77;;
71038;SDS011;58692;43.212;27.908;2023-12-20T12:17:11;13.98;;;8.38;;
71038;SDS011;58692;43.212;27.908;2023-12-20T12:19:38;14.18;;;8.95;;
71038;SDS011;58692;43.212;27.908;2023-12-20T12:24:38;14.77;;;9.30;;
71038;SDS011;58692;43.212;27.908;2023-12-20T12:27:06;15.60;;;10.00;;
71038;SDS011;58692;43.212;27.908;2023-12-20T12:29:32;15.73;;;9.95;;
71038;SDS011;58692;43.212;27.908;2023-12-20T12:31:59;16.67;;;10.00;;
71038;SDS011;58692;43.212;27.908;2023-12-20T12:34:27;18.20;;;10.80;;
71038;SDS011;58692;43.212;27.908;2023-12-20T12:36:53;18.23;;;11.50;;
71038;SDS011;58692;43.212;27.908;2023-12-20T12:39:19;20.08;;;11.65;;
71038;SDS011;58692;43.212;27.908;2023-12-20T12:41:45;19.50;;;12.10;;
71038;SDS011;58692;43.212;27.908;2023-12-20T12:44:11;21.00;;;12.23;;
71038;SDS011;58692;43.212;27.908;2023-12-20T12:46:37;21.15;;;12.77;;
71038;SDS011;58692;43.212;27.908;2023-12-20T12:49:07;20.80;;;12.77;;
71038;SDS011;58692;43.212;27.908;2023-12-20T12:51:33;20.17;;;11.37;;
71038;SDS011;58692;43.212;27.908;2023-12-20T12:53:59;17.42;;;11.40;;
71038;SDS011;58692;43.212;27.908;2023-12-20T12:56:25;18.10;;;10.82;;
71038;SDS011;58692;43.212;27.908;2023-12-20T12:58:51;21.33;;;11.87;;
71038;SDS011;58692;43.212;27.908;2023-12-20T13:01:17;19.35;;;12.38;;
71038;SDS011;58692;43.212;27.908;2023-12-20T13:03:43;21.50;;;13.40;;
71038;SDS011;58692;43.212;27.908;2023-12-20T13:06:10;21.13;;;12.80;;
71038;SDS011;58692;43.212;27.908;2023-12-20T13:08:38;25.77;;;14.30;;
71038;SDS011;58692;43.212;27.908;2023-12-20T13:11:04;22.55;;;13.65;;
71038;SDS011;58692;43.212;27.908;2023-12-20T13:13:30;24.83;;;14.40;;
71038;SDS011;58692;43.212;27.908;2023-12-20T13:15:56;20.77;;;12.70;;
71038;SDS011;58692;43.212;27.908;2023-12-20T13:18:26;24.45;;;13.80;;
71038;SDS011;58692;43.212;27.908;2023-12-20T13:20:51;23.42;;;14.18;;
71038;SDS011;58692;43.212;27.908;2023-12-20T13:23:20;22.03;;;13.67;;
71038;SDS011;58692;43.212;27.908;2023-12-20T13:25:46;23.10;;;13.93;;
71038;SDS011;58692;43.212;27.908;2023-12-20T13:28:12;25.23;;;14.38;;
71038;SDS011;58692;43.212;27.908;2023-12-20T13:30:38;28.00;;;14.30;;
71038;SDS011;58692;43.212;27.908;2023-12-20T13:33:05;26.90;;;14.45;;
71038;SDS011;58692;43.212;27.908;2023-12-20T13:35:34;23.50;;;13.82;;
71038;SDS011;58692;43.212;27.908;2023-12-20T13:38:00;25.40;;;13.02;;
71038;SDS011;58692;43.212;27.908;2023-12-20T13:40:26;29.48;;;14.40;;
71038;SDS011;58692;43.212;27.908;2023-12-20T13:42:56;21.40;;;12.90;;
71038;SDS011;58692;43.212;27.908;2023-12-20T13:45:21;22.92;;;14.23;;
71038;SDS011;58692;43.212;27.908;2023-12-20T13:47:47;27.10;;;14.93;;
71038;SDS011;58692;43.212;27.908;2023-12-20T13:50:13;24.83;;;14.37;;
71038;SDS011;58692;43.212;27.908;2023-12-20T13:52:43;25.95;;;14.77;;
71038;SDS011;58692;43.212;27.908;2023-12-20T13:55:08;29.13;;;14.80;;
71038;SDS011;58692;43.212;27.908;2023-12-20T13:57:35;32.13;;;16.73;;
71038;SDS011;58692;43.212;27.908;2023-12-20T14:00:03;35.28;;;16.92;;
71038;SDS011;58692;43.212;27.908;2023-12-20T14:02:30;30.98;;;15.55;;
71038;SDS011;58692;43.212;27.908;2023-12-20T14:04:55;33.03;;;15.07;;
71038;SDS011;58692;43.212;27.908;2023-12-20T14:07:21;28.42;;;16.27;;
71038;SDS011;58692;43.212;27.908;2023-12-20T14:09:47;31.90;;;16.23;;
71038;SDS011;58692;43.212;27.908;2023-12-20T14:12:13;30.77;;;15.97;;
71038;SDS011;58692;43.212;27.908;2023-12-20T14:14:39;24.48;;;15.27;;
71038;SDS011;58692;43.212;27.908;2023-12-20T14:17:05;30.63;;;16.05;;
71038;SDS011;58692;43.212;27.908;2023-12-20T14:19:40;26.45;;;14.70;;
71038;SDS011;58692;43.212;27.908;2023-12-20T14:22:07;27.60;;;15.13;;